This is the latest recevied weather packets stored in our database for station/object eb1ayw-13. If no packets are shown the sender has not sent any weather packets the latest 10 day(s).
| Time | Temp. | Humidity | Pressure | Rain* | Wind** | Luminosity | Snow |
|---|---|---|---|---|---|---|---|
| 1777946268 | 36.11° C | 17% | 1004.8 hPa | - | - | - | - |
| 1777945668 | 36.67° C | 17% | 1004.8 hPa | - | - | - | - |
| 1777945068 | 36.67° C | 17% | 1004.9 hPa | - | - | - | - |
| 1777944468 | 36.67° C | 17% | 1004.9 hPa | - | - | - | - |
| 1777943868 | 36.11° C | 17% | 1005 hPa | - | - | - | - |
| 1777943268 | 35.56° C | 17% | 1005.4 hPa | - | - | - | - |
| 1777942668 | 34.44° C | 19% | 1005.8 hPa | - | - | - | - |
| 1777942068 | 34.44° C | 18% | 1005.7 hPa | - | - | - | - |
| 1777941468 | 34.44° C | 18% | 1005.9 hPa | - | - | - | - |
| 1777940869 | 36.67° C | 17% | 1005.4 hPa | - | - | - | - |
| 1777940268 | 38.33° C | 15% | 1005.1 hPa | - | - | - | - |
| 1777939668 | 38.33° C | 15% | 1005 hPa | - | - | - | - |
| 1777939068 | 35° C | 17% | 1005.8 hPa | - | - | - | - |
| 1777938468 | 37.22° C | 16% | 1005.3 hPa | - | - | - | - |
| 1777937868 | 34.44° C | 19% | 1006 hPa | - | - | - | - |
| 1777937268 | 34.44° C | 18% | 1006.1 hPa | - | - | - | - |
| 1777936668 | 34.44° C | 19% | 1006.1 hPa | - | - | - | - |
| 1777936068 | 35° C | 18% | 1005.9 hPa | - | - | - | - |
| 1777935468 | 31.67° C | 20% | 1006.8 hPa | - | - | - | - |
| 1777934868 | 34.44° C | 19% | 1006 hPa | - | - | - | - |
| 1777934268 | 32.78° C | 19% | 1006.5 hPa | - | - | - | - |
| 1777933668 | 33.89° C | 20% | 1006.2 hPa | - | - | - | - |
| 1777933068 | 31.67° C | 21% | 1006.8 hPa | - | - | - | - |
| 1777932468 | 32.78° C | 20% | 1006.6 hPa | - | - | - | - |
| 1777931868 | 30.56° C | 22% | 1007.2 hPa | - | - | - | - |
* Rain since midnight (hover to see other rain measurements)
** Current wind speed in m/s (hover to see current wind gust speed)